Time;durP1;ratioP1;P1;durP2;ratioP2;P2;SDS_P1;SDS_P2;PMS_P1;PMS_P2;Temp;Humidity;BMP_temperature;BMP_pressure;BME280_temperature;BME280_humidity;BME280_pressure;Samples;Min_cycle;Max_cycle;Signal;HPM_P1;HPM_P2
2022/04/15 00:02:18;;;;;;;35.50;21.30;;;11.20;99.90;;;;;;4897698;29;20231;-79
2022/04/15 00:04:44;;;;;;;33.13;19.87;;;11.40;99.90;;;;;;4896581;29;20229;-78
2022/04/15 00:07:11;;;;;;;28.90;18.53;;;11.30;99.90;;;;;;4893933;29;20226;-83
2022/04/15 00:09:38;;;;;;;29.17;19.40;;;11.10;99.90;;;;;;4892458;29;20228;-81
2022/04/15 00:12:10;;;;;;;32.20;20.23;;;11.10;99.90;;;;;;4900614;29;20206;-79
2022/04/15 00:14:37;;;;;;;34.77;20.43;;;11.10;99.90;;;;;;4895970;29;20192;-77
2022/04/15 00:17:04;;;;;;;29.83;19.77;;;11.00;99.90;;;;;;4900515;29;20286;-78
2022/04/15 00:19:30;;;;;;;32.03;20.10;;;11.00;99.90;;;;;;4902421;29;20226;-75
2022/04/15 00:21:57;;;;;;;26.43;17.43;;;10.80;99.90;;;;;;4897414;29;20510;-72
2022/04/15 00:24:24;;;;;;;27.87;18.70;;;10.90;99.90;;;;;;4899462;29;20221;-76
2022/04/15 00:26:50;;;;;;;26.93;17.63;;;11.00;99.90;;;;;;4899602;29;20221;-75
2022/04/15 00:29:18;;;;;;;31.80;19.73;;;10.90;99.90;;;;;;4899306;29;20220;-75
2022/04/15 00:31:44;;;;;;;26.70;18.10;;;10.80;99.90;;;;;;4896631;29;20202;-79
2022/04/15 00:34:11;;;;;;;29.30;17.83;;;10.70;99.90;;;;;;4893588;29;20284;-75
2022/04/15 00:36:37;;;;;;;28.00;18.10;;;10.70;99.90;;;;;;4898812;29;20209;-76
2022/04/15 00:39:05;;;;;;;29.10;18.57;;;10.70;99.90;;;;;;4898676;29;20724;-76
2022/04/15 00:41:32;;;;;;;26.30;17.80;;;10.70;99.90;;;;;;4916335;29;20293;-77
2022/04/15 00:43:59;;;;;;;26.60;17.57;;;10.70;99.90;;;;;;4899782;29;20719;-74
2022/04/15 00:46:26;;;;;;;26.70;17.47;;;10.70;99.90;;;;;;4898323;29;20204;-78
2022/04/15 00:48:53;;;;;;;27.57;17.13;;;10.70;99.90;;;;;;4897169;29;20310;-75
2022/04/15 00:51:27;;;;;;;26.77;17.37;;;10.70;99.90;;;;;;4894104;29;20241;-75
2022/04/15 00:53:54;;;;;;;29.50;17.07;;;10.60;99.90;;;;;;4897173;29;20672;-73
2022/04/15 00:56:25;;;;;;;23.60;16.43;;;10.60;99.90;;;;;;4899088;29;20202;-77
2022/04/15 00:58:53;;;;;;;24.60;16.13;;;10.50;99.90;;;;;;4895631;29;20216;-73
2022/04/15 01:01:20;;;;;;;28.83;17.30;;;10.40;99.90;;;;;;4900067;29;20593;-73
2022/04/15 01:03:48;;;;;;;25.70;16.07;;;10.40;99.90;;;;;;4896353;29;20205;-74
2022/04/15 01:06:17;;;;;;;27.33;17.07;;;10.30;99.90;;;;;;4897622;29;20260;-73
2022/04/15 01:08:44;;;;;;;26.60;16.53;;;10.40;99.90;;;;;;4895110;29;20277;-73
2022/04/15 01:11:12;;;;;;;24.40;15.90;;;10.30;99.90;;;;;;4929637;29;20221;-76
2022/04/15 01:13:40;;;;;;;24.90;15.97;;;10.30;99.90;;;;;;4897525;29;20199;-77
2022/04/15 01:16:08;;;;;;;29.50;16.80;;;10.30;99.90;;;;;;4898395;29;20210;-76
2022/04/15 01:18:35;;;;;;;31.80;17.53;;;10.30;99.90;;;;;;4895664;29;20231;-77
2022/04/15 01:21:03;;;;;;;27.13;17.33;;;10.30;99.90;;;;;;4911553;29;20197;-73
2022/04/15 01:23:29;;;;;;;32.13;18.30;;;10.30;99.90;;;;;;4897080;29;20201;-76
2022/04/15 01:25:56;;;;;;;26.10;16.83;;;10.50;99.90;;;;;;4895652;29;20677;-73
2022/04/15 01:28:23;;;;;;;30.30;17.37;;;10.50;99.90;;;;;;4896342;29;20263;-72
2022/04/15 01:30:50;;;;;;;26.33;17.37;;;10.50;99.90;;;;;;4896226;29;20251;-76
2022/04/15 01:33:17;;;;;;;25.50;16.27;;;10.50;99.90;;;;;;4901838;29;20212;-73
2022/04/15 01:35:48;;;;;;;30.53;18.67;;;10.40;99.90;;;;;;4888902;29;20204;-74
2022/04/15 01:38:17;;;;;;;26.47;16.20;;;10.50;99.90;;;;;;4897331;29;20204;-73
2022/04/15 01:40:44;;;;;;;26.60;17.63;;;10.30;99.90;;;;;;4906500;29;20304;-75
2022/04/15 01:43:12;;;;;;;30.63;17.97;;;10.40;99.90;;;;;;4893964;29;20211;-73
2022/04/15 01:45:38;;;;;;;28.23;16.97;;;10.30;99.90;;;;;;4889393;29;20212;-73
2022/04/15 01:48:05;;;;;;;29.67;18.13;;;10.30;99.90;;;;;;4891749;29;21002;-73
2022/04/15 01:50:33;;;;;;;27.63;18.20;;;10.20;99.90;;;;;;4893088;29;20707;-75
2022/04/15 01:52:59;;;;;;;25.87;17.17;;;10.10;99.90;;;;;;4894193;29;20740;-73
2022/04/15 01:55:27;;;;;;;27.07;17.43;;;10.20;99.90;;;;;;4892165;29;20256;-76
2022/04/15 01:57:54;;;;;;;27.60;17.30;;;10.10;99.90;;;;;;4891113;29;20214;-74
2022/04/15 02:00:21;;;;;;;28.73;18.47;;;10.00;99.90;;;;;;4888210;29;20259;-77
2022/04/15 02:02:48;;;;;;;28.63;18.70;;;10.00;99.90;;;;;;4896910;29;20205;-75
2022/04/15 02:05:15;;;;;;;31.23;18.47;;;10.10;99.90;;;;;;4893846;29;20607;-75
2022/04/15 02:07:41;;;;;;;28.50;16.80;;;10.30;99.90;;;;;;4893925;29;20708;-74
2022/04/15 02:10:09;;;;;;;29.83;18.77;;;10.20;99.90;;;;;;4894028;29;20229;-74
2022/04/15 02:12:35;;;;;;;28.67;18.17;;;10.20;99.90;;;;;;4890295;29;21037;-78
2022/04/15 02:15:04;;;;;;;28.07;17.63;;;10.10;99.90;;;;;;4894211;29;20269;-78
2022/04/15 02:17:31;;;;;;;26.90;17.73;;;10.00;99.90;;;;;;4893279;29;20276;-75
2022/04/15 02:19:57;;;;;;;28.23;17.30;;;10.00;99.90;;;;;;4897099;29;20225;-74
2022/04/15 02:22:24;;;;;;;31.30;17.17;;;10.10;99.90;;;;;;4891305;29;20219;-72
2022/04/15 02:24:51;;;;;;;26.90;16.77;;;10.10;99.90;;;;;;4893680;29;20241;-75
2022/04/15 02:27:17;;;;;;;24.07;16.13;;;9.90;99.90;;;;;;4894435;29;20283;-75
2022/04/15 02:29:44;;;;;;;27.33;16.50;;;9.80;99.90;;;;;;4887622;29;20223;-73
2022/04/15 02:32:11;;;;;;;26.63;16.27;;;9.80;99.90;;;;;;4892475;29;20208;-73
2022/04/15 02:34:37;;;;;;;23.93;15.97;;;9.70;99.90;;;;;;4893125;29;20238;-77
2022/04/15 02:37:05;;;;;;;30.23;18.17;;;9.70;99.90;;;;;;4891606;29;20618;-73
2022/04/15 02:39:32;;;;;;;28.80;18.40;;;9.70;99.90;;;;;;4891491;29;20232;-77
2022/04/15 02:42:00;;;;;;;29.47;17.83;;;9.70;99.90;;;;;;4909038;29;20201;-73
2022/04/15 02:44:28;;;;;;;29.73;17.93;;;9.90;99.90;;;;;;4895983;29;20204;-73
2022/04/15 02:46:57;;;;;;;30.50;18.20;;;9.70;99.90;;;;;;4892901;29;20205;-73
2022/04/15 02:49:26;;;;;;;27.53;16.70;;;9.90;99.90;;;;;;4894667;29;20718;-72
2022/04/15 02:51:53;;;;;;;26.03;16.93;;;9.80;99.90;;;;;;4892412;29;20211;-74
2022/04/15 02:54:20;;;;;;;26.17;17.00;;;9.70;99.90;;;;;;4906750;29;20258;-74
2022/04/15 02:56:46;;;;;;;27.20;16.53;;;9.70;99.90;;;;;;4893479;29;20673;-73
2022/04/15 02:59:13;;;;;;;28.90;17.93;;;9.60;99.90;;;;;;4900692;29;20224;-73
2022/04/15 03:01:40;;;;;;;29.97;18.60;;;9.50;99.90;;;;;;4896907;29;20211;-74
2022/04/15 03:04:06;;;;;;;30.03;18.63;;;9.80;99.90;;;;;;4888440;29;20200;-74
2022/04/15 03:06:33;;;;;;;33.03;18.43;;;9.70;99.90;;;;;;4891104;29;20204;-76
2022/04/15 03:09:00;;;;;;;32.07;18.83;;;9.80;99.90;;;;;;4894498;29;20228;-73
2022/04/15 03:11:26;;;;;;;32.03;18.40;;;9.90;99.90;;;;;;4895992;29;20196;-75
2022/04/15 03:13:53;;;;;;;32.47;18.43;;;9.80;99.90;;;;;;4894207;29;20197;-73
2022/04/15 03:16:19;;;;;;;33.53;19.97;;;9.70;99.90;;;;;;4894076;29;20253;-74
2022/04/15 03:18:46;;;;;;;35.73;19.73;;;9.80;99.90;;;;;;4890416;29;20665;-73
2022/04/15 03:21:13;;;;;;;31.73;19.07;;;9.80;99.90;;;;;;4887938;29;20208;-74
2022/04/15 03:23:42;;;;;;;37.57;20.70;;;9.60;99.90;;;;;;4893255;29;20212;-73
2022/04/15 03:26:09;;;;;;;36.20;21.87;;;9.50;99.90;;;;;;4891410;29;20200;-73
2022/04/15 03:28:37;;;;;;;37.43;21.80;;;9.60;99.90;;;;;;4891925;29;20228;-79
2022/04/15 03:31:05;;;;;;;35.23;20.40;;;9.70;99.90;;;;;;4894443;29;20196;-73
2022/04/15 03:33:37;;;;;;;32.23;19.33;;;9.60;99.90;;;;;;4894933;29;20265;-73
2022/04/15 03:36:04;;;;;;;33.47;20.10;;;9.50;99.90;;;;;;4892332;29;20215;-74
2022/04/15 03:38:31;;;;;;;34.87;20.83;;;9.40;99.90;;;;;;4895943;29;20197;-77
2022/04/15 03:40:58;;;;;;;36.67;20.20;;;9.20;99.90;;;;;;4889345;29;20690;-73
2022/04/15 03:43:25;;;;;;;37.07;20.60;;;9.10;99.90;;;;;;4918769;29;20637;-73
2022/04/15 03:45:51;;;;;;;34.87;19.87;;;9.10;99.90;;;;;;4892134;29;20208;-75
2022/04/15 03:48:18;;;;;;;37.10;21.53;;;9.10;99.90;;;;;;4893136;29;20225;-73
2022/04/15 03:50:44;;;;;;;32.60;19.87;;;9.10;99.90;;;;;;4894551;29;20577;-73
2022/04/15 03:53:11;;;;;;;36.77;20.37;;;9.10;99.90;;;;;;4892639;29;20219;-73
2022/04/15 03:55:38;;;;;;;36.57;20.67;;;9.00;99.90;;;;;;4886732;29;20220;-76
2022/04/15 03:58:04;;;;;;;33.90;19.90;;;8.90;99.90;;;;;;4896719;29;20576;-74
2022/04/15 04:00:31;;;;;;;36.17;20.90;;;8.90;99.90;;;;;;4895278;29;20244;-74
2022/04/15 04:03:01;;;;;;;30.77;18.67;;;8.90;99.90;;;;;;4890231;29;20228;-74
2022/04/15 04:05:28;;;;;;;33.03;20.03;;;8.90;99.90;;;;;;4893947;29;20200;-74
2022/04/15 04:07:55;;;;;;;32.50;19.80;;;8.90;99.90;;;;;;4893767;29;20228;-74
2022/04/15 04:10:21;;;;;;;35.07;20.50;;;8.90;99.90;;;;;;4888695;29;20219;-74
2022/04/15 04:12:48;;;;;;;37.67;20.67;;;8.90;99.90;;;;;;4883887;29;20207;-77
2022/04/15 04:15:15;;;;;;;36.13;20.13;;;8.90;99.90;;;;;;4895730;29;20571;-74
2022/04/15 04:17:42;;;;;;;35.57;20.40;;;8.90;99.90;;;;;;4892695;29;20203;-78
2022/04/15 04:20:12;;;;;;;38.77;21.70;;;8.90;99.90;;;;;;4890539;29;20641;-75
2022/04/15 04:22:40;;;;;;;40.23;22.50;;;8.90;99.90;;;;;;4894348;29;20242;-74
2022/04/15 04:25:09;;;;;;;36.70;21.07;;;8.90;99.90;;;;;;4897455;29;20202;-75
2022/04/15 04:27:40;;;;;;;34.37;20.63;;;8.80;99.90;;;;;;4894577;29;20219;-75
2022/04/15 04:30:09;;;;;;;36.70;21.17;;;8.80;99.90;;;;;;4892054;29;20243;-77
2022/04/15 04:32:36;;;;;;;42.73;22.83;;;8.80;99.90;;;;;;4888747;29;20218;-73
2022/04/15 04:35:03;;;;;;;40.43;23.33;;;8.80;99.90;;;;;;4887938;29;20218;-73
2022/04/15 04:37:30;;;;;;;39.37;21.90;;;8.90;99.90;;;;;;4894592;29;20205;-73
2022/04/15 04:39:57;;;;;;;38.13;23.37;;;9.00;99.90;;;;;;4888331;29;20236;-74
2022/04/15 04:42:24;;;;;;;40.67;24.30;;;9.10;99.90;;;;;;4889784;29;20194;-71
2022/04/15 04:44:52;;;;;;;38.60;22.87;;;9.20;99.90;;;;;;4892518;29;20676;-76
2022/04/15 04:47:20;;;;;;;38.27;23.07;;;9.10;99.90;;;;;;4896769;29;20211;-74
2022/04/15 04:49:47;;;;;;;43.13;23.20;;;9.00;99.90;;;;;;4898438;29;20228;-75
2022/04/15 04:52:13;;;;;;;39.17;22.93;;;9.10;99.90;;;;;;4891037;29;20251;-75
2022/04/15 04:54:40;;;;;;;42.47;24.97;;;9.10;99.90;;;;;;4891190;29;20200;-74
2022/04/15 04:57:07;;;;;;;41.10;24.17;;;9.10;99.90;;;;;;4898507;29;20213;-77
2022/04/15 04:59:34;;;;;;;45.10;24.97;;;9.20;99.90;;;;;;4896779;29;20224;-75
2022/04/15 05:02:00;;;;;;;47.07;26.97;;;9.20;99.90;;;;;;4906152;29;20661;-73
2022/04/15 05:04:27;;;;;;;47.00;26.40;;;9.30;99.90;;;;;;4890042;29;20212;-74
2022/04/15 05:06:55;;;;;;;43.57;24.93;;;9.40;99.90;;;;;;4896568;29;20673;-72
2022/04/15 05:09:22;;;;;;;41.07;23.37;;;9.50;99.90;;;;;;4897171;29;20591;-73
2022/04/15 05:11:49;;;;;;;41.13;24.20;;;9.40;99.90;;;;;;4890606;29;20196;-72
2022/04/15 05:14:17;;;;;;;37.83;23.37;;;9.40;99.90;;;;;;4896813;29;20198;-77
2022/04/15 05:16:44;;;;;;;51.73;27.50;;;9.50;99.90;;;;;;4897529;29;20204;-76
2022/04/15 05:19:11;;;;;;;46.10;25.57;;;9.50;99.90;;;;;;4892728;29;20701;-72
2022/04/15 05:21:38;;;;;;;45.03;23.90;;;9.80;99.90;;;;;;4895259;29;20197;-72
2022/04/15 05:24:06;;;;;;;40.63;24.03;;;9.90;99.90;;;;;;4898127;29;20212;-75
2022/04/15 05:26:33;;;;;;;44.67;23.67;;;9.90;99.90;;;;;;4893882;29;20204;-72
2022/04/15 05:29:01;;;;;;;41.40;24.73;;;10.00;99.90;;;;;;4895749;29;20760;-74
2022/04/15 05:31:27;;;;;;;36.93;23.23;;;10.00;99.90;;;;;;4893500;29;20206;-74
2022/04/15 05:33:54;;;;;;;39.13;22.33;;;10.10;99.90;;;;;;4893906;29;20233;-71
2022/04/15 05:36:21;;;;;;;36.77;22.13;;;10.20;99.90;;;;;;4890376;29;20291;-74
2022/04/15 05:38:47;;;;;;;36.10;21.37;;;10.20;99.90;;;;;;4894910;29;20249;-72
2022/04/15 05:41:14;;;;;;;34.77;21.83;;;10.30;99.90;;;;;;4896067;29;20212;-72
2022/04/15 05:43:42;;;;;;;34.03;20.50;;;10.50;99.90;;;;;;4894916;29;20216;-73
2022/04/15 05:46:10;;;;;;;34.47;21.23;;;10.50;99.90;;;;;;4892652;29;20212;-78
2022/04/15 05:48:37;;;;;;;33.27;20.90;;;10.70;99.90;;;;;;4894679;29;20228;-72
2022/04/15 05:51:04;;;;;;;35.23;20.80;;;10.70;99.90;;;;;;4891986;29;20208;-71
2022/04/15 05:53:31;;;;;;;32.93;20.10;;;10.80;99.90;;;;;;4897116;29;20198;-73
2022/04/15 05:55:58;;;;;;;32.90;21.03;;;10.90;99.90;;;;;;4887934;29;20299;-73
2022/04/15 05:58:28;;;;;;;31.37;18.87;;;11.30;99.90;;;;;;4896380;29;20202;-73
2022/04/15 06:00:55;;;;;;;26.80;17.63;;;11.40;99.90;;;;;;4889558;29;20231;-74
2022/04/15 06:03:23;;;;;;;26.60;19.00;;;11.50;99.90;;;;;;4887728;29;20253;-78
2022/04/15 06:05:50;;;;;;;26.73;18.13;;;11.60;99.90;;;;;;4893593;29;20214;-77
2022/04/15 06:08:17;;;;;;;23.83;16.20;;;11.80;99.90;;;;;;4888229;29;20234;-77
2022/04/15 06:10:44;;;;;;;27.50;19.57;;;11.80;99.90;;;;;;4896080;29;20254;-77
2022/04/15 06:13:14;;;;;;;29.30;18.30;;;12.00;99.90;;;;;;4883984;29;20352;-84
2022/04/15 06:15:51;;;;;;;28.77;18.70;;;12.20;99.90;;;;;;4897688;29;20208;-82
2022/04/15 06:18:19;;;;;;;26.87;17.93;;;12.30;99.90;;;;;;4909069;29;20202;-83
2022/04/15 06:20:47;;;;;;;27.30;18.07;;;12.50;99.90;;;;;;4891441;29;20216;-82
2022/04/15 06:23:14;;;;;;;27.90;18.30;;;12.50;99.90;;;;;;4888493;29;20811;-85
2022/04/15 06:25:41;;;;;;;28.10;18.47;;;12.60;99.90;;;;;;4894051;29;20204;-82
2022/04/15 06:28:08;;;;;;;27.43;18.63;;;12.70;99.90;;;;;;4893410;29;20240;-77
2022/04/15 06:30:35;;;;;;;29.07;18.13;;;12.70;99.90;;;;;;4893067;29;20224;-82
2022/04/15 06:33:05;;;;;;;30.57;18.73;;;12.80;99.90;;;;;;4886798;29;20686;-85
2022/04/15 06:35:33;;;;;;;30.97;19.00;;;12.80;99.90;;;;;;4894298;29;20208;-81
2022/04/15 06:38:00;;;;;;;29.40;18.47;;;13.00;99.90;;;;;;4893319;29;20200;-82
2022/04/15 06:40:28;;;;;;;29.07;18.83;;;13.10;99.90;;;;;;4894536;29;20235;-82
2022/04/15 06:42:54;;;;;;;29.97;18.83;;;13.20;99.90;;;;;;4894375;29;20197;-79
2022/04/15 06:45:23;;;;;;;27.87;17.90;;;13.20;99.90;;;;;;4893476;29;20205;-77
2022/04/15 06:47:50;;;;;;;28.90;17.47;;;13.30;99.90;;;;;;4893708;29;20223;-76
2022/04/15 06:50:19;;;;;;;27.23;17.47;;;13.40;99.90;;;;;;4891511;29;20740;-78
2022/04/15 06:52:45;;;;;;;27.33;17.73;;;13.50;99.90;;;;;;4890815;29;20660;-76
2022/04/15 06:55:12;;;;;;;26.90;18.10;;;13.60;99.90;;;;;;4884466;29;20219;-75
2022/04/15 06:57:39;;;;;;;28.43;17.73;;;13.70;99.90;;;;;;4895292;29;20257;-78
2022/04/15 07:00:06;;;;;;;25.83;16.13;;;13.90;99.90;;;;;;4893931;29;20238;-76
2022/04/15 07:02:34;;;;;;;25.60;16.50;;;14.00;99.90;;;;;;4892587;29;20214;-78
2022/04/15 07:05:00;;;;;;;21.27;14.80;;;14.10;99.90;;;;;;4907759;29;20213;-75
2022/04/15 07:07:27;;;;;;;19.87;12.40;;;14.40;99.90;;;;;;4892230;29;20204;-76
2022/04/15 07:09:54;;;;;;;18.73;12.50;;;14.60;99.90;;;;;;4889887;29;20720;-75
2022/04/15 07:12:20;;;;;;;18.03;12.20;;;14.90;99.90;;;;;;4895399;29;20196;-74
2022/04/15 07:14:47;;;;;;;16.80;10.90;;;15.40;99.90;;;;;;4890755;29;20196;-72
2022/04/15 07:17:14;;;;;;;18.60;9.90;;;15.70;99.90;;;;;;4897711;29;20207;-74
2022/04/15 07:19:42;;;;;;;14.53;9.50;;;15.90;99.90;;;;;;4893817;29;20303;-74
2022/04/15 07:22:08;;;;;;;15.40;9.93;;;16.10;99.90;;;;;;4891099;29;20216;-77
2022/04/15 07:24:35;;;;;;;14.43;10.07;;;16.40;99.90;;;;;;4894299;29;20197;-73
2022/04/15 07:27:03;;;;;;;14.33;10.07;;;16.50;99.90;;;;;;4897643;29;20212;-77
2022/04/15 07:29:30;;;;;;;18.10;10.17;;;16.50;99.90;;;;;;4925644;29;20231;-75
2022/04/15 07:31:57;;;;;;;15.63;10.97;;;16.70;99.90;;;;;;4906071;29;20197;-72
2022/04/15 07:34:26;;;;;;;16.53;10.43;;;16.90;99.90;;;;;;4917942;29;20227;-73
2022/04/15 07:36:57;;;;;;;15.03;9.63;;;16.90;99.90;;;;;;4892835;29;20208;-73
2022/04/15 07:39:24;;;;;;;14.40;8.93;;;16.90;99.90;;;;;;4895534;29;20229;-73
2022/04/15 07:41:52;;;;;;;14.97;8.67;;;17.00;99.90;;;;;;4889846;29;20687;-74
2022/04/15 07:44:19;;;;;;;15.43;9.23;;;17.20;99.90;;;;;;4882438;29;20219;-75
2022/04/15 07:46:47;;;;;;;8.23;5.10;;;17.30;99.90;;;;;;4894132;29;20211;-75
2022/04/15 07:49:14;;;;;;;7.50;4.40;;;17.40;99.90;;;;;;4894302;29;21091;-75
2022/04/15 07:51:42;;;;;;;5.77;3.87;;;17.20;99.90;;;;;;4891723;29;20748;-73
2022/04/15 07:54:09;;;;;;;5.73;3.60;;;17.20;99.90;;;;;;4891288;29;20192;-77
2022/04/15 07:56:36;;;;;;;5.67;3.40;;;17.30;99.90;;;;;;4890177;29;20673;-76
2022/04/15 07:59:03;;;;;;;5.47;3.63;;;17.30;99.90;;;;;;4890070;29;20246;-74
2022/04/15 08:01:31;;;;;;;6.50;3.60;;;17.30;99.90;;;;;;4899484;29;20492;-72
2022/04/15 08:03:59;;;;;;;5.50;3.17;;;17.30;99.90;;;;;;4892603;29;20200;-71
2022/04/15 08:06:28;;;;;;;5.60;2.90;;;17.00;99.90;;;;;;4890824;29;20209;-72
2022/04/15 08:08:56;;;;;;;7.40;3.23;;;17.00;99.90;;;;;;4888369;29;20224;-74
2022/04/15 08:11:25;;;;;;;4.63;2.77;;;16.90;99.90;;;;;;4892775;29;20208;-72
2022/04/15 08:13:52;;;;;;;4.00;2.50;;;17.00;99.90;;;;;;4891611;29;20259;-72
2022/04/15 08:16:20;;;;;;;2.93;2.03;;;16.90;99.90;;;;;;4891165;29;20205;-77
2022/04/15 08:18:48;;;;;;;3.70;1.97;;;17.00;99.90;;;;;;4891109;29;20220;-73
2022/04/15 08:21:15;;;;;;;4.23;2.03;;;17.10;99.90;;;;;;4892909;29;20204;-73
2022/04/15 08:23:43;;;;;;;4.40;1.80;;;17.10;99.90;;;;;;4892413;29;20686;-75
2022/04/15 08:26:11;;;;;;;3.33;1.80;;;17.10;99.90;;;;;;4895114;29;20251;-75
2022/04/15 08:28:37;;;;;;;2.47;1.43;;;17.20;99.90;;;;;;4893378;29;20224;-76
2022/04/15 08:31:04;;;;;;;1.83;1.20;;;17.10;99.90;;;;;;4881203;29;20196;-73
2022/04/15 08:33:31;;;;;;;1.70;1.20;;;17.20;99.90;;;;;;4910241;29;20204;-72
2022/04/15 08:35:58;;;;;;;1.23;1.00;;;17.50;99.90;;;;;;4896944;29;21724;-74
2022/04/15 08:38:24;;;;;;;2.30;1.03;;;17.60;99.90;;;;;;4885707;29;20230;-75
2022/04/15 08:40:56;;;;;;;2.53;1.20;;;17.70;99.90;;;;;;4890771;29;20200;-75
2022/04/15 08:43:25;;;;;;;1.83;0.97;;;17.90;99.90;;;;;;4895350;29;20204;-75
2022/04/15 08:45:53;;;;;;;1.50;0.97;;;17.90;99.90;;;;;;4901930;29;20223;-76
2022/04/15 08:48:21;;;;;;;2.37;0.97;;;18.00;99.90;;;;;;4897237;29;20204;-75
2022/04/15 08:50:48;;;;;;;1.67;1.00;;;17.90;99.90;;;;;;4898052;29;20816;-74
2022/04/15 08:53:16;;;;;;;2.03;1.20;;;17.70;99.90;;;;;;4911573;29;20200;-74
2022/04/15 08:55:42;;;;;;;1.10;1.00;;;17.60;99.90;;;;;;4893811;29;20582;-74
2022/04/15 08:58:09;;;;;;;1.30;1.00;;;17.30;99.90;;;;;;4896069;29;20207;-74
2022/04/15 09:00:36;;;;;;;2.37;1.10;;;17.50;99.90;;;;;;4895251;29;20259;-75
2022/04/15 09:03:03;;;;;;;2.73;0.97;;;17.70;99.90;;;;;;4895826;29;20561;-74
2022/04/15 09:05:30;;;;;;;2.30;1.00;;;18.00;99.90;;;;;;4897724;29;20235;-75
2022/04/15 09:08:04;;;;;;;0.97;0.70;;;17.90;99.90;;;;;;4893030;29;20224;-77
2022/04/15 09:10:35;;;;;;;1.30;0.90;;;17.90;99.90;;;;;;4890812;29;20303;-73
2022/04/15 09:13:03;;;;;;;1.33;0.80;;;18.00;99.90;;;;;;4895912;29;20287;-74
2022/04/15 09:15:35;;;;;;;1.70;0.70;;;18.00;99.90;;;;;;4891237;29;20192;-74
2022/04/15 09:18:02;;;;;;;2.57;0.90;;;17.90;99.90;;;;;;4895179;29;20200;-74
2022/04/15 09:20:33;;;;;;;1.43;0.83;;;17.90;99.90;;;;;;4893569;29;20224;-74
2022/04/15 09:23:10;;;;;;;2.70;0.90;;;17.80;99.90;;;;;;4896164;29;20221;-73
2022/04/15 09:25:39;;;;;;;2.40;0.90;;;18.10;99.90;;;;;;4902279;29;20216;-75
2022/04/15 09:28:06;;;;;;;1.00;0.80;;;18.20;99.90;;;;;;4893508;29;20204;-75
2022/04/15 09:30:42;;;;;;;1.27;0.87;;;18.30;99.90;;;;;;4894899;29;20615;-73
2022/04/15 09:33:15;;;;;;;2.80;0.90;;;18.50;99.90;;;;;;4893994;29;20497;-74
2022/04/15 09:35:45;;;;;;;1.23;0.80;;;18.70;99.90;;;;;;4895011;29;20297;-73
2022/04/15 09:38:12;;;;;;;1.40;0.90;;;18.70;99.90;;;;;;4897446;29;20697;-71
2022/04/15 09:40:39;;;;;;;1.87;1.00;;;18.80;99.90;;;;;;4891797;29;20204;-71
2022/04/15 09:43:06;;;;;;;1.17;0.90;;;18.80;99.90;;;;;;4892811;29;20204;-75
2022/04/15 09:45:37;;;;;;;2.50;1.07;;;18.90;99.90;;;;;;4888107;29;20212;-73
2022/04/15 09:48:11;;;;;;;2.57;1.40;;;19.00;99.90;;;;;;4897330;29;20276;-74
2022/04/15 09:50:42;;;;;;;2.63;1.10;;;18.60;99.90;;;;;;4892555;29;20243;-75
2022/04/15 09:53:20;;;;;;;2.13;1.30;;;18.50;99.90;;;;;;4888896;29;20200;-75
2022/04/15 09:55:48;;;;;;;1.47;0.90;;;18.30;99.90;;;;;;4892679;29;20200;-73
2022/04/15 09:58:17;;;;;;;2.10;0.87;;;18.20;99.90;;;;;;4893480;29;20251;-73
2022/04/15 10:00:48;;;;;;;1.80;1.03;;;18.40;99.90;;;;;;4900764;29;20212;-72
2022/04/15 10:03:24;;;;;;;2.17;1.10;;;18.60;99.90;;;;;;4906293;29;20212;-71
2022/04/15 10:05:54;;;;;;;1.37;1.03;;;18.70;99.90;;;;;;4896706;29;20215;-73
2022/04/15 10:08:22;;;;;;;0.77;0.70;;;18.60;99.90;;;;;;4901788;29;20673;-73
2022/04/15 10:10:50;;;;;;;2.07;1.17;;;18.40;99.90;;;;;;4889974;29;20223;-73
2022/04/15 10:13:17;;;;;;;2.17;1.10;;;18.70;99.90;;;;;;4892891;29;20200;-75
2022/04/15 10:15:47;;;;;;;2.77;1.17;;;18.50;99.90;;;;;;4891629;29;20250;-72
2022/04/15 10:18:14;;;;;;;4.83;1.20;;;18.70;99.90;;;;;;4893465;29;20200;-73
2022/04/15 10:20:42;;;;;;;2.43;1.00;;;18.70;99.90;;;;;;4905008;29;20208;-73
2022/04/15 10:23:11;;;;;;;2.07;1.10;;;19.00;99.90;;;;;;4895744;29;20201;-72
2022/04/15 10:25:43;;;;;;;3.17;1.37;;;18.90;99.90;;;;;;4892234;29;20685;-72
2022/04/15 10:28:11;;;;;;;1.40;1.20;;;19.10;99.90;;;;;;4890655;29;20208;-73
2022/04/15 10:30:38;;;;;;;1.20;1.00;;;19.10;99.90;;;;;;4895301;29;20223;-72
2022/04/15 10:33:05;;;;;;;2.43;0.80;;;19.30;99.90;;;;;;4893141;29;20205;-74
2022/04/15 10:35:34;;;;;;;1.47;1.00;;;19.30;99.90;;;;;;4896193;29;20208;-72
2022/04/15 10:38:11;;;;;;;1.87;1.10;;;19.10;99.90;;;;;;4893540;29;20200;-73
2022/04/15 10:40:42;;;;;;;2.37;1.10;;;19.30;99.90;;;;;;4911696;29;20231;-74
2022/04/15 10:43:24;;;;;;;1.70;1.20;;;19.30;99.90;;;;;;4896602;29;20203;-73
2022/04/15 10:46:30;;;;;;;2.07;1.10;;;19.20;99.90;;;;;;4894234;29;20256;-74
2022/04/15 10:49:01;;;;;;;3.33;1.10;;;19.30;99.90;;;;;;4887318;29;20232;-74
2022/04/15 10:51:33;;;;;;;1.93;0.93;;;19.50;99.90;;;;;;4896882;29;20668;-72
2022/04/15 10:54:40;;;;;;;5.33;1.00;;;19.30;99.90;;;;;;4904421;29;20197;-74
2022/04/15 10:57:15;;;;;;;1.83;1.10;;;19.20;99.90;;;;;;4894524;29;20196;-73
2022/04/15 11:02:44;;;;;;;1.37;1.00;;;19.30;99.90;;;;;;4880835;29;20212;-73
2022/04/15 11:05:15;;;;;;;2.23;1.30;;;19.20;99.90;;;;;;4894232;29;20763;-75
2022/04/15 11:07:44;;;;;;;1.50;1.00;;;19.20;99.90;;;;;;4894856;29;20278;-75
2022/04/15 11:10:18;;;;;;;2.07;1.20;;;19.30;99.90;;;;;;4893411;29;20240;-74
2022/04/15 11:12:45;;;;;;;2.80;1.40;;;19.40;99.90;;;;;;4894452;29;20196;-76
2022/04/15 11:15:12;;;;;;;2.50;1.30;;;19.40;99.90;;;;;;4894460;29;20200;-74
2022/04/15 11:17:44;;;;;;;2.87;1.20;;;19.40;99.90;;;;;;4909828;29;20205;-75
2022/04/15 11:20:11;;;;;;;3.67;1.20;;;19.50;99.90;;;;;;4895566;29;20236;-74
2022/04/15 11:22:43;;;;;;;4.70;1.67;;;19.70;99.90;;;;;;4894333;29;20204;-74
2022/04/15 11:25:12;;;;;;;2.20;1.20;;;19.70;99.90;;;;;;4892962;29;20212;-74
2022/04/15 11:27:40;;;;;;;1.53;1.20;;;19.60;99.90;;;;;;4895418;29;20264;-75
2022/04/15 11:30:11;;;;;;;1.80;1.27;;;19.70;99.90;;;;;;4889797;29;20484;-75
2022/04/15 11:32:48;;;;;;;3.10;1.00;;;19.60;99.90;;;;;;4891020;29;20216;-75
2022/04/15 11:35:28;;;;;;;3.40;1.40;;;19.80;99.90;;;;;;4891270;29;20204;-75
2022/04/15 11:38:07;;;;;;;4.30;1.30;;;19.80;99.90;;;;;;4893398;29;20204;-75
2022/04/15 11:40:35;;;;;;;3.00;1.27;;;19.80;99.90;;;;;;4891807;29;20287;-72
2022/04/15 11:43:07;;;;;;;1.50;1.17;;;19.70;99.90;;;;;;4891883;29;20592;-75
2022/04/15 11:45:42;;;;;;;2.05;1.20;;;19.90;99.90;;;;;;4895284;29;20765;-75
2022/04/15 11:48:16;;;;;;;1.70;1.40;;;20.00;99.90;;;;;;4895777;29;20644;-75
2022/04/15 11:50:43;;;;;;;1.83;1.47;;;19.70;99.90;;;;;;4890927;29;20231;-74
2022/04/15 11:53:09;;;;;;;2.17;1.43;;;19.70;99.90;;;;;;4892866;29;20215;-74
2022/04/15 11:55:58;;;;;;;3.17;1.60;;;19.80;99.90;;;;;;4894307;29;20204;-71
2022/04/15 11:58:34;;;;;;;3.40;1.40;;;19.90;99.90;;;;;;4888742;29;20215;-76
2022/04/15 12:01:01;;;;;;;3.07;1.50;;;19.80;99.90;;;;;;4893517;29;20218;-74
2022/04/15 12:03:29;;;;;;;2.35;1.40;;;19.90;99.90;;;;;;4909436;29;20208;-74
2022/04/15 12:05:59;;;;;;;3.58;1.27;;;20.00;99.90;;;;;;4903196;29;20211;-76
2022/04/15 12:08:26;;;;;;;1.75;1.10;;;20.10;99.90;;;;;;4897496;29;20207;-74
2022/04/15 12:10:53;;;;;;;2.03;1.20;;;20.10;99.90;;;;;;4899014;29;20224;-74
2022/04/15 12:13:20;;;;;;;2.15;1.17;;;20.00;99.90;;;;;;4894990;29;20633;-73
2022/04/15 12:15:47;;;;;;;1.92;1.20;;;20.00;99.90;;;;;;4893572;29;20295;-74
2022/04/15 12:18:14;;;;;;;2.63;1.40;;;20.20;99.90;;;;;;4896889;29;20204;-76
2022/04/15 12:20:42;;;;;;;1.52;1.20;;;20.30;99.90;;;;;;4909608;29;20208;-75
2022/04/15 12:23:11;;;;;;;2.28;0.90;;;20.30;99.90;;;;;;4895926;29;20203;-74
2022/04/15 12:31:27;;;;;;;2.47;1.17;;;20.10;99.90;;;;;;4897093;29;20270;-75
2022/04/15 12:33:56;;;;;;;1.90;1.10;;;19.80;99.90;;;;;;4896516;29;20208;-72
2022/04/15 12:36:23;;;;;;;2.13;1.30;;;19.90;99.90;;;;;;4899721;29;20203;-74
2022/04/15 12:39:00;;;;;;;1.77;1.20;;;19.70;99.90;;;;;;4897074;29;20224;-73
2022/04/15 12:41:49;;;;;;;4.07;1.37;;;19.70;99.90;;;;;;4909182;29;20200;-75
2022/04/15 12:44:18;;;;;;;2.30;1.30;;;19.90;99.90;;;;;;4896825;29;20627;-74
2022/04/15 12:46:48;;;;;;;2.30;1.40;;;20.00;99.90;;;;;;4896674;29;20200;-74
2022/04/15 12:49:22;;;;;;;1.77;1.23;;;20.10;99.90;;;;;;4897996;29;20224;-74
2022/04/15 12:51:48;;;;;;;2.53;1.10;;;20.10;99.90;;;;;;4894241;29;20219;-73
2022/04/15 12:54:15;;;;;;;1.05;1.00;;;20.00;99.90;;;;;;4928172;29;20208;-73